sensor_id;sensor_type;location;lat;lon;timestamp;pressure;altitude;pressure_sealevel;temperature;humidity
47080;BME280;33067;49.296;14.470;2023-04-28T00:01:50;97174.28;;;9.81;38.58
47080;BME280;33067;49.296;14.470;2023-04-28T00:04:04;97178.12;;;9.77;39.05
47080;BME280;33067;49.296;14.470;2023-04-28T00:06:30;97179.97;;;9.67;38.97
47080;BME280;33067;49.296;14.470;2023-04-28T00:08:55;97178.39;;;9.68;39.34
47080;BME280;33067;49.296;14.470;2023-04-28T00:11:21;97178.92;;;9.20;38.92
47080;BME280;33067;49.296;14.470;2023-04-28T00:13:46;97182.15;;;9.42;38.02
47080;BME280;33067;49.296;14.470;2023-04-28T00:16:12;97183.29;;;9.82;38.16
47080;BME280;33067;49.296;14.470;2023-04-28T00:18:38;97183.32;;;9.77;38.21
47080;BME280;33067;49.296;14.470;2023-04-28T00:21:04;97179.46;;;9.75;39.23
47080;BME280;33067;49.296;14.470;2023-04-28T00:23:28;97184.26;;;10.01;38.70
47080;BME280;33067;49.296;14.470;2023-04-28T00:25:54;97178.59;;;9.47;39.43
47080;BME280;33067;49.296;14.470;2023-04-28T00:28:20;97183.31;;;9.82;38.94
47080;BME280;33067;49.296;14.470;2023-04-28T00:30:44;97181.53;;;9.85;39.17
47080;BME280;33067;49.296;14.470;2023-04-28T00:33:10;97175.08;;;9.77;39.01
47080;BME280;33067;49.296;14.470;2023-04-28T00:35:35;97175.51;;;9.98;38.73
47080;BME280;33067;49.296;14.470;2023-04-28T00:38:00;97172.29;;;9.77;38.96
47080;BME280;33067;49.296;14.470;2023-04-28T00:40:32;97173.06;;;9.19;38.87
47080;BME280;33067;49.296;14.470;2023-04-28T00:42:51;97170.04;;;9.14;38.85
47080;BME280;33067;49.296;14.470;2023-04-28T00:45:17;97169.97;;;9.28;39.24
47080;BME280;33067;49.296;14.470;2023-04-28T00:47:42;97168.68;;;8.88;39.37
47080;BME280;33067;49.296;14.470;2023-04-28T00:50:07;97165.11;;;9.14;38.56
47080;BME280;33067;49.296;14.470;2023-04-28T00:52:32;97159.72;;;9.46;38.60
47080;BME280;33067;49.296;14.470;2023-04-28T00:54:57;97158.24;;;9.37;39.07
47080;BME280;33067;49.296;14.470;2023-04-28T00:57:23;97153.67;;;9.61;38.27
47080;BME280;33067;49.296;14.470;2023-04-28T00:59:48;97151.80;;;9.76;38.72
47080;BME280;33067;49.296;14.470;2023-04-28T01:02:14;97143.30;;;9.58;38.86
47080;BME280;33067;49.296;14.470;2023-04-28T01:04:39;97145.18;;;9.44;39.18
47080;BME280;33067;49.296;14.470;2023-04-28T01:07:05;97147.29;;;9.58;39.05
47080;BME280;33067;49.296;14.470;2023-04-28T01:09:30;97145.96;;;9.27;39.10
47080;BME280;33067;49.296;14.470;2023-04-28T01:11:56;97141.04;;;9.37;39.21
47080;BME280;33067;49.296;14.470;2023-04-28T01:14:22;97143.28;;;9.60;38.84
47080;BME280;33067;49.296;14.470;2023-04-28T01:16:47;97139.65;;;9.23;39.27
47080;BME280;33067;49.296;14.470;2023-04-28T01:19:18;97138.31;;;9.42;38.93
47080;BME280;33067;49.296;14.470;2023-04-28T01:21:38;97139.88;;;9.80;38.55
47080;BME280;33067;49.296;14.470;2023-04-28T01:24:05;97141.30;;;9.76;38.35
47080;BME280;33067;49.296;14.470;2023-04-28T01:26:29;97142.70;;;9.80;38.24
47080;BME280;33067;49.296;14.470;2023-04-28T01:28:54;97142.72;;;9.78;38.25
47080;BME280;33067;49.296;14.470;2023-04-28T01:31:20;97137.89;;;9.77;38.24
47080;BME280;33067;49.296;14.470;2023-04-28T01:33:45;97140.28;;;9.87;38.33
47080;BME280;33067;49.296;14.470;2023-04-28T01:36:13;97135.99;;;9.47;39.12
47080;BME280;33067;49.296;14.470;2023-04-28T01:38:37;97134.11;;;9.40;39.26
47080;BME280;33067;49.296;14.470;2023-04-28T01:41:04;97133.35;;;8.99;39.53
47080;BME280;33067;49.296;14.470;2023-04-28T01:43:27;97136.21;;;8.78;39.84
47080;BME280;33067;49.296;14.470;2023-04-28T01:45:53;97135.29;;;8.68;40.34
47080;BME280;33067;49.296;14.470;2023-04-28T01:48:19;97136.19;;;8.48;40.05
47080;BME280;33067;49.296;14.470;2023-04-28T01:50:46;97136.05;;;8.16;40.11
47080;BME280;33067;49.296;14.470;2023-04-28T01:53:10;97139.76;;;8.21;40.64
47080;BME280;33067;49.296;14.470;2023-04-28T01:55:37;97136.35;;;8.16;39.79
47080;BME280;33067;49.296;14.470;2023-04-28T01:58:00;97130.86;;;8.41;40.35
47080;BME280;33067;49.296;14.470;2023-04-28T02:00:27;97132.92;;;8.12;40.56
47080;BME280;33067;49.296;14.470;2023-04-28T02:02:51;97132.05;;;8.45;39.98
47080;BME280;33067;49.296;14.470;2023-04-28T02:05:17;97136.89;;;8.35;40.66
47080;BME280;33067;49.296;14.470;2023-04-28T02:07:44;97139.17;;;8.29;40.52
47080;BME280;33067;49.296;14.470;2023-04-28T02:13:01;97141.23;;;8.35;40.86
47080;BME280;33067;49.296;14.470;2023-04-28T02:15:26;97135.36;;;8.30;40.98
47080;BME280;33067;49.296;14.470;2023-04-28T02:17:51;97135.34;;;8.17;40.32
47080;BME280;33067;49.296;14.470;2023-04-28T02:20:17;97131.54;;;8.33;40.47
47080;BME280;33067;49.296;14.470;2023-04-28T02:22:43;97129.29;;;8.26;40.44
47080;BME280;33067;49.296;14.470;2023-04-28T02:25:08;97131.37;;;7.96;40.83
47080;BME280;33067;49.296;14.470;2023-04-28T02:27:35;97128.40;;;7.96;41.19
47080;BME280;33067;49.296;14.470;2023-04-28T02:29:58;97126.56;;;8.31;41.78
47080;BME280;33067;49.296;14.470;2023-04-28T02:32:23;97122.10;;;8.24;41.56
47080;BME280;33067;49.296;14.470;2023-04-28T02:34:52;97117.86;;;7.91;41.65
47080;BME280;33067;49.296;14.470;2023-04-28T02:37:14;97117.74;;;8.22;41.48
47080;BME280;33067;49.296;14.470;2023-04-28T02:39:39;97123.29;;;7.84;41.47
47080;BME280;33067;49.296;14.470;2023-04-28T02:42:05;97128.84;;;8.07;41.78
47080;BME280;33067;49.296;14.470;2023-04-28T02:44:30;97138.28;;;7.89;41.84
47080;BME280;33067;49.296;14.470;2023-04-28T02:46:55;97138.86;;;8.07;41.49
47080;BME280;33067;49.296;14.470;2023-04-28T02:49:21;97140.34;;;7.94;41.69
47080;BME280;33067;49.296;14.470;2023-04-28T02:51:46;97140.38;;;7.38;41.37
47080;BME280;33067;49.296;14.470;2023-04-28T02:54:12;97137.40;;;7.46;41.34
47080;BME280;33067;49.296;14.470;2023-04-28T02:56:37;97137.40;;;7.52;42.33
47080;BME280;33067;49.296;14.470;2023-04-28T02:59:03;97140.57;;;7.85;42.25
47080;BME280;33067;49.296;14.470;2023-04-28T03:01:28;97142.23;;;8.17;41.78
47080;BME280;33067;49.296;14.470;2023-04-28T03:03:53;97138.07;;;8.15;41.77
47080;BME280;33067;49.296;14.470;2023-04-28T03:06:19;97135.34;;;8.09;41.76
47080;BME280;33067;49.296;14.470;2023-04-28T03:08:44;97129.66;;;8.29;41.29
47080;BME280;33067;49.296;14.470;2023-04-28T03:11:10;97128.12;;;8.84;41.15
47080;BME280;33067;49.296;14.470;2023-04-28T03:13:37;97129.67;;;8.18;41.23
47080;BME280;33067;49.296;14.470;2023-04-28T03:16:01;97129.24;;;8.09;41.65
47080;BME280;33067;49.296;14.470;2023-04-28T03:18:26;97127.04;;;8.18;41.93
47080;BME280;33067;49.296;14.470;2023-04-28T03:20:53;97122.93;;;8.10;41.75
47080;BME280;33067;49.296;14.470;2023-04-28T03:23:16;97122.36;;;8.09;41.72
47080;BME280;33067;49.296;14.470;2023-04-28T03:25:41;97114.40;;;8.31;41.53
47080;BME280;33067;49.296;14.470;2023-04-28T03:28:07;97110.53;;;8.13;41.14
47080;BME280;33067;49.296;14.470;2023-04-28T03:30:33;97107.30;;;8.59;40.46
47080;BME280;33067;49.296;14.470;2023-04-28T03:32:58;97107.98;;;8.80;40.17
47080;BME280;33067;49.296;14.470;2023-04-28T03:35:24;97104.20;;;8.86;39.89
47080;BME280;33067;49.296;14.470;2023-04-28T03:37:49;97098.81;;;8.47;40.08
47080;BME280;33067;49.296;14.470;2023-04-28T03:40:15;97094.14;;;8.44;40.24
47080;BME280;33067;49.296;14.470;2023-04-28T03:42:40;97089.88;;;8.58;40.05
47080;BME280;33067;49.296;14.470;2023-04-28T03:45:06;97087.82;;;8.77;39.84
47080;BME280;33067;49.296;14.470;2023-04-28T03:47:31;97085.78;;;8.61;40.18
47080;BME280;33067;49.296;14.470;2023-04-28T03:49:56;97086.07;;;8.58;39.95
47080;BME280;33067;49.296;14.470;2023-04-28T03:52:21;97084.92;;;8.77;40.05
47080;BME280;33067;49.296;14.470;2023-04-28T03:54:46;97084.69;;;8.38;39.95
47080;BME280;33067;49.296;14.470;2023-04-28T03:57:12;97082.96;;;8.32;39.68
47080;BME280;33067;49.296;14.470;2023-04-28T03:59:37;97084.21;;;8.18;39.79
47080;BME280;33067;49.296;14.470;2023-04-28T04:02:03;97086.12;;;8.14;39.37
47080;BME280;33067;49.296;14.470;2023-04-28T04:04:28;97088.09;;;8.02;39.53
47080;BME280;33067;49.296;14.470;2023-04-28T04:06:54;97092.33;;;8.21;39.31
47080;BME280;33067;49.296;14.470;2023-04-28T04:09:20;97091.10;;;8.39;39.00
47080;BME280;33067;49.296;14.470;2023-04-28T04:11:45;97091.27;;;8.57;38.58
47080;BME280;33067;49.296;14.470;2023-04-28T04:14:10;97083.93;;;8.53;38.67
47080;BME280;33067;49.296;14.470;2023-04-28T04:16:35;97080.75;;;8.15;39.23
47080;BME280;33067;49.296;14.470;2023-04-28T04:19:01;97079.33;;;8.00;39.36
47080;BME280;33067;49.296;14.470;2023-04-28T04:21:26;97083.11;;;8.46;39.31
47080;BME280;33067;49.296;14.470;2023-04-28T04:23:52;97091.25;;;8.17;39.94
47080;BME280;33067;49.296;14.470;2023-04-28T04:26:18;97096.71;;;7.75;40.15
47080;BME280;33067;49.296;14.470;2023-04-28T04:28:44;97094.07;;;7.79;40.30
47080;BME280;33067;49.296;14.470;2023-04-28T04:31:09;97089.38;;;8.05;40.08
47080;BME280;33067;49.296;14.470;2023-04-28T04:33:34;97093.44;;;7.73;40.31
47080;BME280;33067;49.296;14.470;2023-04-28T04:36:00;97098.59;;;7.88;40.36
47080;BME280;33067;49.296;14.470;2023-04-28T04:38:26;97100.37;;;8.27;39.93
47080;BME280;33067;49.296;14.470;2023-04-28T04:40:51;97097.24;;;8.36;39.59
47080;BME280;33067;49.296;14.470;2023-04-28T04:43:17;97092.67;;;8.15;39.22
47080;BME280;33067;49.296;14.470;2023-04-28T04:45:42;97093.34;;;8.74;38.93
47080;BME280;33067;49.296;14.470;2023-04-28T04:48:08;97091.33;;;9.04;38.23
47080;BME280;33067;49.296;14.470;2023-04-28T04:50:33;97092.30;;;8.79;38.40
47080;BME280;33067;49.296;14.470;2023-04-28T04:52:58;97090.13;;;9.30;37.96
47080;BME280;33067;49.296;14.470;2023-04-28T04:55:24;97084.61;;;9.49;37.63
47080;BME280;33067;49.296;14.470;2023-04-28T04:57:49;97081.57;;;9.32;37.99
47080;BME280;33067;49.296;14.470;2023-04-28T05:00:15;97080.40;;;9.64;38.03
47080;BME280;33067;49.296;14.470;2023-04-28T05:02:40;97081.44;;;9.85;37.23
47080;BME280;33067;49.296;14.470;2023-04-28T05:05:06;97086.37;;;9.95;37.46
47080;BME280;33067;49.296;14.470;2023-04-28T05:07:30;97081.36;;;10.26;36.95
47080;BME280;33067;49.296;14.470;2023-04-28T05:09:56;97082.25;;;10.15;36.96
47080;BME280;33067;49.296;14.470;2023-04-28T05:12:22;97084.55;;;10.33;36.11
47080;BME280;33067;49.296;14.470;2023-04-28T05:14:47;97079.82;;;10.16;36.47
47080;BME280;33067;49.296;14.470;2023-04-28T05:17:13;97084.33;;;9.87;36.33
47080;BME280;33067;49.296;14.470;2023-04-28T05:19:38;97084.33;;;10.28;36.74
47080;BME280;33067;49.296;14.470;2023-04-28T05:22:03;97086.79;;;10.26;36.01
47080;BME280;33067;49.296;14.470;2023-04-28T05:24:29;97084.10;;;10.29;35.58
47080;BME280;33067;49.296;14.470;2023-04-28T05:26:58;97077.59;;;10.64;35.56
47080;BME280;33067;49.296;14.470;2023-04-28T05:29:19;97076.54;;;10.70;36.06
47080;BME280;33067;49.296;14.470;2023-04-28T05:31:44;97078.65;;;10.51;35.91
47080;BME280;33067;49.296;14.470;2023-04-28T05:34:10;97076.65;;;10.83;36.48
47080;BME280;33067;49.296;14.470;2023-04-28T05:36:35;97076.22;;;11.19;35.20
47080;BME280;33067;49.296;14.470;2023-04-28T05:39:01;97077.61;;;11.13;35.24
47080;BME280;33067;49.296;14.470;2023-04-28T05:41:26;97072.65;;;11.54;35.08
47080;BME280;33067;49.296;14.470;2023-04-28T05:43:51;97071.27;;;11.25;34.95
47080;BME280;33067;49.296;14.470;2023-04-28T05:46:17;97069.02;;;11.18;34.94
47080;BME280;33067;49.296;14.470;2023-04-28T05:48:42;97065.51;;;11.16;35.03
47080;BME280;33067;49.296;14.470;2023-04-28T05:51:07;97065.18;;;11.59;35.69
47080;BME280;33067;49.296;14.470;2023-04-28T05:53:33;97059.87;;;11.72;34.62
47080;BME280;33067;49.296;14.470;2023-04-28T05:55:58;97058.39;;;11.06;34.08
47080;BME280;33067;49.296;14.470;2023-04-28T05:58:23;97060.18;;;11.59;33.12
47080;BME280;33067;49.296;14.470;2023-04-28T06:00:49;97058.78;;;11.52;34.34
47080;BME280;33067;49.296;14.470;2023-04-28T06:03:14;97055.00;;;11.36;34.88
47080;BME280;33067;49.296;14.470;2023-04-28T06:05:39;97056.23;;;12.00;33.04
47080;BME280;33067;49.296;14.470;2023-04-28T06:08:04;97048.37;;;11.00;34.59
47080;BME280;33067;49.296;14.470;2023-04-28T06:10:30;97042.91;;;11.08;33.67
47080;BME280;33067;49.296;14.470;2023-04-28T06:12:55;97038.22;;;10.50;34.79
47080;BME280;33067;49.296;14.470;2023-04-28T06:15:20;97034.47;;;10.36;34.70
47080;BME280;33067;49.296;14.470;2023-04-28T06:17:46;97029.91;;;11.08;33.89
47080;BME280;33067;49.296;14.470;2023-04-28T06:20:11;97027.60;;;10.15;33.43
47080;BME280;33067;49.296;14.470;2023-04-28T06:22:36;97019.43;;;12.04;32.28
47080;BME280;33067;49.296;14.470;2023-04-28T06:25:01;97019.07;;;11.99;32.97
47080;BME280;33067;49.296;14.470;2023-04-28T06:27:26;97026.22;;;11.60;34.08
47080;BME280;33067;49.296;14.470;2023-04-28T06:29:51;97019.73;;;12.35;32.75
47080;BME280;33067;49.296;14.470;2023-04-28T06:32:16;97010.53;;;12.57;32.62
47080;BME280;33067;49.296;14.470;2023-04-28T06:34:42;97012.90;;;12.46;32.89
47080;BME280;33067;49.296;14.470;2023-04-28T06:37:08;97018.01;;;11.88;33.61
47080;BME280;33067;49.296;14.470;2023-04-28T06:39:33;97016.05;;;12.66;33.20
47080;BME280;33067;49.296;14.470;2023-04-28T06:41:58;97013.36;;;12.50;33.63
47080;BME280;33067;49.296;14.470;2023-04-28T06:44:23;97003.70;;;12.05;32.89
47080;BME280;33067;49.296;14.470;2023-04-28T06:46:49;97001.16;;;12.76;32.69
47080;BME280;33067;49.296;14.470;2023-04-28T06:49:14;96999.77;;;12.65;32.96
47080;BME280;33067;49.296;14.470;2023-04-28T06:51:39;97006.11;;;12.22;33.54
47080;BME280;33067;49.296;14.470;2023-04-28T06:54:05;97010.83;;;12.34;34.07
47080;BME280;33067;49.296;14.470;2023-04-28T06:56:30;97009.59;;;12.87;33.77
47080;BME280;33067;49.296;14.470;2023-04-28T06:58:56;97000.81;;;12.36;34.00
47080;BME280;33067;49.296;14.470;2023-04-28T07:01:21;96993.78;;;12.17;35.00
47080;BME280;33067;49.296;14.470;2023-04-28T07:03:47;96985.67;;;12.46;33.70
47080;BME280;33067;49.296;14.470;2023-04-28T07:06:12;96985.10;;;12.35;33.34
47080;BME280;33067;49.296;14.470;2023-04-28T07:08:37;96984.63;;;12.62;33.42
47080;BME280;33067;49.296;14.470;2023-04-28T07:11:03;96987.34;;;12.58;33.66
47080;BME280;33067;49.296;14.470;2023-04-28T07:13:28;96988.39;;;12.47;33.19
47080;BME280;33067;49.296;14.470;2023-04-28T07:15:53;96986.30;;;12.86;32.49
47080;BME280;33067;49.296;14.470;2023-04-28T07:18:19;96984.73;;;12.91;32.15
47080;BME280;33067;49.296;14.470;2023-04-28T07:20:44;96992.02;;;13.16;32.36
47080;BME280;33067;49.296;14.470;2023-04-28T07:23:10;96995.58;;;13.64;31.96
47080;BME280;33067;49.296;14.470;2023-04-28T07:25:35;96994.08;;;13.30;32.02
47080;BME280;33067;49.296;14.470;2023-04-28T07:28:02;96991.08;;;13.15;32.62
47080;BME280;33067;49.296;14.470;2023-04-28T07:30:27;96983.22;;;12.93;32.60
47080;BME280;33067;49.296;14.470;2023-04-28T07:32:52;96979.33;;;13.85;32.16
47080;BME280;33067;49.296;14.470;2023-04-28T07:35:18;96988.00;;;13.34;31.97
47080;BME280;33067;49.296;14.470;2023-04-28T07:37:43;96981.72;;;12.78;33.61
47080;BME280;33067;49.296;14.470;2023-04-28T07:40:10;96980.78;;;12.47;34.52
47080;BME280;33067;49.296;14.470;2023-04-28T07:42:34;96986.55;;;13.16;33.81
47080;BME280;33067;49.296;14.470;2023-04-28T07:44:59;96983.69;;;12.70;34.32
47080;BME280;33067;49.296;14.470;2023-04-28T07:47:25;96988.55;;;13.46;32.99
47080;BME280;33067;49.296;14.470;2023-04-28T07:49:50;96984.20;;;12.92;33.82
47080;BME280;33067;49.296;14.470;2023-04-28T07:52:16;96989.07;;;13.13;33.76
47080;BME280;33067;49.296;14.470;2023-04-28T07:54:41;96979.34;;;12.77;34.06
47080;BME280;33067;49.296;14.470;2023-04-28T07:57:06;96971.24;;;13.71;33.51
47080;BME280;33067;49.296;14.470;2023-04-28T07:59:32;96970.59;;;13.70;33.30
47080;BME280;33067;49.296;14.470;2023-04-28T08:01:57;96969.72;;;13.89;33.23
47080;BME280;33067;49.296;14.470;2023-04-28T08:04:23;96962.38;;;13.51;33.33
47080;BME280;33067;49.296;14.470;2023-04-28T08:06:48;96953.84;;;14.69;32.32
47080;BME280;33067;49.296;14.470;2023-04-28T08:09:13;96951.39;;;15.21;31.53
47080;BME280;33067;49.296;14.470;2023-04-28T08:11:39;96956.85;;;15.11;30.34
47080;BME280;33067;49.296;14.470;2023-04-28T08:14:04;96953.45;;;15.12;30.51
47080;BME280;33067;49.296;14.470;2023-04-28T08:16:30;96949.90;;;15.15;30.41
47080;BME280;33067;49.296;14.470;2023-04-28T08:18:55;96949.42;;;14.77;30.40
47080;BME280;33067;49.296;14.470;2023-04-28T08:21:21;96949.91;;;15.00;30.60
47080;BME280;33067;49.296;14.470;2023-04-28T08:23:46;96950.88;;;15.50;30.18
47080;BME280;33067;49.296;14.470;2023-04-28T08:26:11;96942.45;;;15.29;30.13
47080;BME280;33067;49.296;14.470;2023-04-28T08:28:37;96940.14;;;15.15;30.45
47080;BME280;33067;49.296;14.470;2023-04-28T08:31:02;96938.63;;;14.88;31.16
47080;BME280;33067;49.296;14.470;2023-04-28T08:33:28;96931.03;;;14.82;30.82
47080;BME280;33067;49.296;14.470;2023-04-28T08:35:54;96927.40;;;15.12;31.19
47080;BME280;33067;49.296;14.470;2023-04-28T08:38:18;96918.07;;;15.52;30.61
47080;BME280;33067;49.296;14.470;2023-04-28T08:40:44;96910.19;;;16.38;29.73
47080;BME280;33067;49.296;14.470;2023-04-28T08:43:09;96914.53;;;15.51;29.68
47080;BME280;33067;49.296;14.470;2023-04-28T08:45:40;96913.17;;;16.33;29.64
47080;BME280;33067;49.296;14.470;2023-04-28T08:48:02;96912.76;;;16.71;29.04
47080;BME280;33067;49.296;14.470;2023-04-28T08:50:28;96907.85;;;15.93;29.35
47080;BME280;33067;49.296;14.470;2023-04-28T08:52:51;96899.71;;;16.74;28.85
47080;BME280;33067;49.296;14.470;2023-04-28T08:55:17;96896.68;;;16.37;29.08
47080;BME280;33067;49.296;14.470;2023-04-28T08:57:43;96894.52;;;16.33;28.85
47080;BME280;33067;49.296;14.470;2023-04-28T09:00:08;96892.63;;;16.32;29.60
47080;BME280;33067;49.296;14.470;2023-04-28T09:02:33;96894.86;;;16.23;29.36
47080;BME280;33067;49.296;14.470;2023-04-28T09:04:58;96898.43;;;15.81;30.13
47080;BME280;33067;49.296;14.470;2023-04-28T09:07:23;96887.50;;;15.85;29.45
47080;BME280;33067;49.296;14.470;2023-04-28T09:09:48;96886.38;;;15.43;29.03
47080;BME280;33067;49.296;14.470;2023-04-28T09:12:14;96880.42;;;16.07;28.71
47080;BME280;33067;49.296;14.470;2023-04-28T09:14:39;96876.71;;;16.44;28.38
47080;BME280;33067;49.296;14.470;2023-04-28T09:17:10;96872.36;;;16.13;29.10
47080;BME280;33067;49.296;14.470;2023-04-28T09:19:32;96873.44;;;16.89;27.85
47080;BME280;33067;49.296;14.470;2023-04-28T09:21:55;96872.91;;;16.39;28.00
47080;BME280;33067;49.296;14.470;2023-04-28T09:24:26;96877.60;;;16.86;28.08
47080;BME280;33067;49.296;14.470;2023-04-28T09:26:48;96875.12;;;15.65;29.03
47080;BME280;33067;49.296;14.470;2023-04-28T09:29:11;96878.43;;;16.35;28.70
47080;BME280;33067;49.296;14.470;2023-04-28T09:31:36;96883.82;;;16.63;27.84
47080;BME280;33067;49.296;14.470;2023-04-28T09:34:01;96883.88;;;16.26;28.06
47080;BME280;33067;49.296;14.470;2023-04-28T09:36:26;96881.43;;;16.24;28.85
47080;BME280;33067;49.296;14.470;2023-04-28T09:38:51;96883.01;;;16.58;29.23
47080;BME280;33067;49.296;14.470;2023-04-28T09:41:16;96884.60;;;16.70;28.26
47080;BME280;33067;49.296;14.470;2023-04-28T09:43:42;96876.00;;;16.22;28.45
47080;BME280;33067;49.296;14.470;2023-04-28T09:46:07;96874.07;;;15.85;28.26
47080;BME280;33067;49.296;14.470;2023-04-28T09:48:34;96869.12;;;15.77;28.31
47080;BME280;33067;49.296;14.470;2023-04-28T09:50:58;96867.33;;;15.85;28.76
47080;BME280;33067;49.296;14.470;2023-04-28T09:53:24;96863.16;;;15.85;28.71
47080;BME280;33067;49.296;14.470;2023-04-28T09:55:49;96862.41;;;16.41;28.18
47080;BME280;33067;49.296;14.470;2023-04-28T09:58:14;96856.35;;;16.61;28.10
47080;BME280;33067;49.296;14.470;2023-04-28T10:00:39;96854.34;;;15.96;28.23
47080;BME280;33067;49.296;14.470;2023-04-28T10:03:04;96847.53;;;15.61;28.36
47080;BME280;33067;49.296;14.470;2023-04-28T10:05:30;96843.65;;;16.04;27.72
47080;BME280;33067;49.296;14.470;2023-04-28T10:07:55;96841.64;;;16.13;27.57
47080;BME280;33067;49.296;14.470;2023-04-28T10:10:21;96845.97;;;16.66;27.61
47080;BME280;33067;49.296;14.470;2023-04-28T10:12:46;96841.49;;;16.83;27.66
47080;BME280;33067;49.296;14.470;2023-04-28T10:15:12;96838.64;;;16.62;27.56
47080;BME280;33067;49.296;14.470;2023-04-28T10:17:37;96831.14;;;17.02;27.17
47080;BME280;33067;49.296;14.470;2023-04-28T10:20:02;96824.25;;;16.95;27.16
47080;BME280;33067;49.296;14.470;2023-04-28T10:22:42;96822.76;;;17.11;27.07
47080;BME280;33067;49.296;14.470;2023-04-28T10:25:03;96814.84;;;17.66;26.80
47080;BME280;33067;49.296;14.470;2023-04-28T10:27:17;96812.51;;;17.18;26.53
47080;BME280;33067;49.296;14.470;2023-04-28T10:29:42;96812.62;;;16.44;27.68
47080;BME280;33067;49.296;14.470;2023-04-28T10:32:18;96813.37;;;16.27;28.14
47080;BME280;33067;49.296;14.470;2023-04-28T10:34:33;96799.89;;;16.98;28.05
47080;BME280;33067;49.296;14.470;2023-04-28T10:36:59;96785.19;;;15.72;27.73
47080;BME280;33067;49.296;14.470;2023-04-28T10:39:24;96766.57;;;16.45;28.11
47080;BME280;33067;49.296;14.470;2023-04-28T10:41:49;96764.81;;;15.88;28.25
47080;BME280;33067;49.296;14.470;2023-04-28T10:49:05;96777.77;;;16.27;27.98
47080;BME280;33067;49.296;14.470;2023-04-28T10:51:31;96773.75;;;15.69;27.97
47080;BME280;33067;49.296;14.470;2023-04-28T10:54:13;96772.69;;;16.42;27.56
47080;BME280;33067;49.296;14.470;2023-04-28T10:56:22;96781.68;;;16.59;27.18
47080;BME280;33067;49.296;14.470;2023-04-28T10:58:46;96790.77;;;16.66;27.18
47080;BME280;33067;49.296;14.470;2023-04-28T11:01:24;96788.93;;;16.95;27.00
47080;BME280;33067;49.296;14.470;2023-04-28T11:03:46;96785.73;;;17.01;26.26
47080;BME280;33067;49.296;14.470;2023-04-28T11:06:17;96786.99;;;16.95;26.42
47080;BME280;33067;49.296;14.470;2023-04-28T11:08:30;96792.70;;;16.73;25.99
47080;BME280;33067;49.296;14.470;2023-04-28T11:13:25;96780.74;;;16.90;25.87
47080;BME280;33067;49.296;14.470;2023-04-28T11:15:42;96772.59;;;16.53;26.27
47080;BME280;33067;49.296;14.470;2023-04-28T11:18:11;96768.18;;;16.06;26.13
47080;BME280;33067;49.296;14.470;2023-04-28T11:20:33;96766.72;;;16.01;26.52
47080;BME280;33067;49.296;14.470;2023-04-28T11:22:58;96765.72;;;16.25;27.06
47080;BME280;33067;49.296;14.470;2023-04-28T11:25:23;96774.74;;;16.51;26.48
47080;BME280;33067;49.296;14.470;2023-04-28T11:27:48;96780.51;;;16.48;26.49
47080;BME280;33067;49.296;14.470;2023-04-28T11:30:20;96780.12;;;16.31;26.83
47080;BME280;33067;49.296;14.470;2023-04-28T11:32:38;96786.56;;;16.99;26.00
47080;BME280;33067;49.296;14.470;2023-04-28T11:35:04;96789.42;;;15.96;26.77
47080;BME280;33067;49.296;14.470;2023-04-28T11:37:29;96790.27;;;16.17;27.03
47080;BME280;33067;49.296;14.470;2023-04-28T11:39:54;96780.99;;;16.56;27.05
47080;BME280;33067;49.296;14.470;2023-04-28T11:42:20;96773.03;;;17.07;26.46
47080;BME280;33067;49.296;14.470;2023-04-28T11:44:49;96770.88;;;17.00;27.15
47080;BME280;33067;49.296;14.470;2023-04-28T11:47:10;96773.79;;;16.57;27.15
47080;BME280;33067;49.296;14.470;2023-04-28T11:49:41;96777.14;;;17.25;26.63
47080;BME280;33067;49.296;14.470;2023-04-28T11:52:04;96778.97;;;17.07;27.67
47080;BME280;33067;49.296;14.470;2023-04-28T11:54:27;96780.10;;;17.32;26.89
47080;BME280;33067;49.296;14.470;2023-04-28T11:56:52;96783.84;;;17.48;27.16
47080;BME280;33067;49.296;14.470;2023-04-28T11:59:16;96790.25;;;17.80;27.07
47080;BME280;33067;49.296;14.470;2023-04-28T12:01:45;96792.89;;;17.64;26.60
47080;BME280;33067;49.296;14.470;2023-04-28T12:04:06;96798.23;;;17.71;27.05
47080;BME280;33067;49.296;14.470;2023-04-28T12:06:31;96797.32;;;18.04;28.13
47080;BME280;33067;49.296;14.470;2023-04-28T12:08:56;96796.73;;;18.07;27.97
47080;BME280;33067;49.296;14.470;2023-04-28T12:11:21;96799.39;;;18.14;28.19
47080;BME280;33067;49.296;14.470;2023-04-28T12:14:03;96809.21;;;18.22;28.53
47080;BME280;33067;49.296;14.470;2023-04-28T12:16:12;96806.46;;;17.93;28.41
47080;BME280;33067;49.296;14.470;2023-04-28T12:18:37;96800.76;;;17.63;29.01
47080;BME280;33067;49.296;14.470;2023-04-28T12:21:03;96809.54;;;17.30;30.96
47080;BME280;33067;49.296;14.470;2023-04-28T12:23:29;96814.47;;;17.28;29.90
47080;BME280;33067;49.296;14.470;2023-04-28T12:25:54;96819.29;;;17.05;31.10
47080;BME280;33067;49.296;14.470;2023-04-28T12:28:19;96820.83;;;17.01;31.45
47080;BME280;33067;49.296;14.470;2023-04-28T12:30:44;96818.55;;;16.61;31.69
47080;BME280;33067;49.296;14.470;2023-04-28T12:33:20;96823.25;;;17.00;32.14
47080;BME280;33067;49.296;14.470;2023-04-28T12:35:34;96824.55;;;16.79;32.49
47080;BME280;33067;49.296;14.470;2023-04-28T12:37:59;96830.93;;;16.36;32.70
47080;BME280;33067;49.296;14.470;2023-04-28T12:40:25;96832.94;;;16.70;33.29
47080;BME280;33067;49.296;14.470;2023-04-28T12:42:50;96834.27;;;16.66;34.51
47080;BME280;33067;49.296;14.470;2023-04-28T12:45:15;96833.14;;;16.83;33.77
47080;BME280;33067;49.296;14.470;2023-04-28T12:47:41;96830.81;;;16.73;35.02
47080;BME280;33067;49.296;14.470;2023-04-28T12:50:07;96827.95;;;16.61;36.00
47080;BME280;33067;49.296;14.470;2023-04-28T12:52:32;96817.93;;;16.23;36.27
47080;BME280;33067;49.296;14.470;2023-04-28T12:54:58;96816.92;;;16.27;37.29